Terminal Aerodrome Forecast
Issued by NWS Wilmington, OH

Current Version | Previous Version | Graphics & Text | Print | Product List | Glossary On
Versions: 1 2 3 4 5 6 7 8 9 10 11 12 13 14 15 16 17 18 19 20 21 22 23
000
FTUS41 KILN 020500
TAFDAY
TAF
KDAY 020539Z 0206/0306 29013KT P6SM BKN015
     FM020800 29010KT P6SM FEW015
     FM021800 32004KT P6SM SCT025 BKN150
     FM030000 10005KT P6SM SCT025 BKN120=

USA.gov is the U.S. government's official web portal to all federal, state and local government web resources and services.